sensor_id;sensor_type;location;lat;lon;timestamp;P1;durP1;ratioP1;P2;durP2;ratioP2
75990;SDS011;64673;52.276;10.560;2023-02-11T00:01:28;33.13;;;12.95;;
75990;SDS011;64673;52.276;10.560;2023-02-11T00:03:58;32.42;;;13.30;;
75990;SDS011;64673;52.276;10.560;2023-02-11T00:06:26;32.70;;;12.95;;
75990;SDS011;64673;52.276;10.560;2023-02-11T00:08:52;33.08;;;14.13;;
75990;SDS011;64673;52.276;10.560;2023-02-11T00:11:19;33.28;;;13.98;;
75990;SDS011;64673;52.276;10.560;2023-02-11T00:13:46;33.78;;;13.98;;
75990;SDS011;64673;52.276;10.560;2023-02-11T00:16:13;37.65;;;15.02;;
75990;SDS011;64673;52.276;10.560;2023-02-11T00:18:40;37.45;;;14.57;;
75990;SDS011;64673;52.276;10.560;2023-02-11T00:21:13;40.08;;;14.93;;
75990;SDS011;64673;52.276;10.560;2023-02-11T00:23:41;36.78;;;14.27;;
75990;SDS011;64673;52.276;10.560;2023-02-11T00:26:10;39.40;;;14.48;;
75990;SDS011;64673;52.276;10.560;2023-02-11T00:28:56;37.17;;;15.13;;
75990;SDS011;64673;52.276;10.560;2023-02-11T00:31:22;34.45;;;14.27;;
75990;SDS011;64673;52.276;10.560;2023-02-11T00:33:48;45.33;;;16.90;;
75990;SDS011;64673;52.276;10.560;2023-02-11T00:36:21;47.50;;;16.85;;
75990;SDS011;64673;52.276;10.560;2023-02-11T00:38:48;40.08;;;15.88;;
75990;SDS011;64673;52.276;10.560;2023-02-11T00:41:15;39.05;;;15.18;;
75990;SDS011;64673;52.276;10.560;2023-02-11T00:43:41;39.38;;;15.38;;
75990;SDS011;64673;52.276;10.560;2023-02-11T00:46:07;43.17;;;15.60;;
75990;SDS011;64673;52.276;10.560;2023-02-11T00:48:33;47.60;;;16.13;;
75990;SDS011;64673;52.276;10.560;2023-02-11T00:50:58;45.65;;;16.30;;
75990;SDS011;64673;52.276;10.560;2023-02-11T00:53:24;43.47;;;17.02;;
75990;SDS011;64673;52.276;10.560;2023-02-11T00:55:50;43.83;;;17.15;;
75990;SDS011;64673;52.276;10.560;2023-02-11T00:58:15;45.35;;;18.23;;
75990;SDS011;64673;52.276;10.560;2023-02-11T01:00:40;42.88;;;17.30;;
75990;SDS011;64673;52.276;10.560;2023-02-11T01:03:06;40.55;;;16.90;;
75990;SDS011;64673;52.276;10.560;2023-02-11T01:05:31;44.83;;;16.95;;
75990;SDS011;64673;52.276;10.560;2023-02-11T01:07:56;41.80;;;16.38;;
75990;SDS011;64673;52.276;10.560;2023-02-11T01:10:22;44.63;;;17.52;;
75990;SDS011;64673;52.276;10.560;2023-02-11T01:12:47;41.92;;;17.08;;
75990;SDS011;64673;52.276;10.560;2023-02-11T01:15:14;47.22;;;17.98;;
75990;SDS011;64673;52.276;10.560;2023-02-11T01:17:40;45.65;;;17.13;;
75990;SDS011;64673;52.276;10.560;2023-02-11T01:20:07;45.55;;;17.25;;
75990;SDS011;64673;52.276;10.560;2023-02-11T01:22:35;47.38;;;17.77;;
75990;SDS011;64673;52.276;10.560;2023-02-11T01:25:03;45.88;;;17.13;;
75990;SDS011;64673;52.276;10.560;2023-02-11T01:27:30;52.38;;;20.05;;
75990;SDS011;64673;52.276;10.560;2023-02-11T01:29:55;40.03;;;15.98;;
75990;SDS011;64673;52.276;10.560;2023-02-11T01:32:20;45.67;;;17.08;;
75990;SDS011;64673;52.276;10.560;2023-02-11T01:34:46;52.47;;;18.33;;
75990;SDS011;64673;52.276;10.560;2023-02-11T01:37:11;48.63;;;18.65;;
75990;SDS011;64673;52.276;10.560;2023-02-11T01:39:36;50.10;;;18.60;;
75990;SDS011;64673;52.276;10.560;2023-02-11T01:42:02;53.83;;;18.83;;
75990;SDS011;64673;52.276;10.560;2023-02-11T01:44:29;44.05;;;17.23;;
75990;SDS011;64673;52.276;10.560;2023-02-11T01:46:55;38.47;;;16.23;;
75990;SDS011;64673;52.276;10.560;2023-02-11T01:49:22;48.35;;;17.70;;
75990;SDS011;64673;52.276;10.560;2023-02-11T01:52:02;42.92;;;16.50;;
75990;SDS011;64673;52.276;10.560;2023-02-11T01:54:35;50.28;;;18.63;;
75990;SDS011;64673;52.276;10.560;2023-02-11T01:57:27;41.10;;;16.90;;
75990;SDS011;64673;52.276;10.560;2023-02-11T02:10:56;51.78;;;20.33;;
75990;SDS011;64673;52.276;10.560;2023-02-11T02:13:25;44.55;;;16.77;;
75990;SDS011;64673;52.276;10.560;2023-02-11T02:15:52;48.92;;;20.08;;
75990;SDS011;64673;52.276;10.560;2023-02-11T02:29:30;46.40;;;17.55;;
75990;SDS011;64673;52.276;10.560;2023-02-11T02:37:33;46.13;;;18.00;;
75990;SDS011;64673;52.276;10.560;2023-02-11T02:40:06;41.13;;;15.60;;
75990;SDS011;64673;52.276;10.560;2023-02-11T02:42:36;50.38;;;19.83;;
75990;SDS011;64673;52.276;10.560;2023-02-11T02:45:05;54.53;;;19.33;;
75990;SDS011;64673;52.276;10.560;2023-02-11T02:47:32;51.38;;;20.48;;
75990;SDS011;64673;52.276;10.560;2023-02-11T02:49:57;48.42;;;19.25;;
75990;SDS011;64673;52.276;10.560;2023-02-11T02:52:46;47.90;;;19.40;;
75990;SDS011;64673;52.276;10.560;2023-02-11T03:00:42;51.72;;;19.75;;
75990;SDS011;64673;52.276;10.560;2023-02-11T03:03:40;48.58;;;18.50;;
75990;SDS011;64673;52.276;10.560;2023-02-11T03:06:16;49.88;;;19.30;;
75990;SDS011;64673;52.276;10.560;2023-02-11T03:08:52;46.80;;;19.00;;
75990;SDS011;64673;52.276;10.560;2023-02-11T03:11:23;49.20;;;19.75;;
75990;SDS011;64673;52.276;10.560;2023-02-11T03:13:50;43.63;;;18.33;;
75990;SDS011;64673;52.276;10.560;2023-02-11T03:16:19;45.72;;;18.45;;
75990;SDS011;64673;52.276;10.560;2023-02-11T03:18:51;49.10;;;19.10;;
75990;SDS011;64673;52.276;10.560;2023-02-11T03:21:23;55.45;;;19.67;;
75990;SDS011;64673;52.276;10.560;2023-02-11T03:23:51;48.20;;;19.00;;
75990;SDS011;64673;52.276;10.560;2023-02-11T03:29:20;45.78;;;18.23;;
75990;SDS011;64673;52.276;10.560;2023-02-11T03:31:53;51.22;;;19.40;;
75990;SDS011;64673;52.276;10.560;2023-02-11T03:36:58;52.20;;;20.38;;
75990;SDS011;64673;52.276;10.560;2023-02-11T03:39:32;46.90;;;19.13;;
75990;SDS011;64673;52.276;10.560;2023-02-11T03:42:02;52.05;;;18.55;;
75990;SDS011;64673;52.276;10.560;2023-02-11T03:44:31;49.70;;;18.83;;
75990;SDS011;64673;52.276;10.560;2023-02-11T03:47:01;51.90;;;19.88;;
75990;SDS011;64673;52.276;10.560;2023-02-11T03:49:29;58.63;;;22.45;;
75990;SDS011;64673;52.276;10.560;2023-02-11T03:54:26;53.38;;;18.13;;
75990;SDS011;64673;52.276;10.560;2023-02-11T03:56:55;52.72;;;19.70;;
75990;SDS011;64673;52.276;10.560;2023-02-11T03:59:23;54.50;;;21.15;;
75990;SDS011;64673;52.276;10.560;2023-02-11T04:01:48;48.35;;;20.13;;
75990;SDS011;64673;52.276;10.560;2023-02-11T04:04:14;56.25;;;21.52;;
75990;SDS011;64673;52.276;10.560;2023-02-11T04:06:39;45.30;;;18.92;;
75990;SDS011;64673;52.276;10.560;2023-02-11T04:09:05;54.55;;;20.67;;
75990;SDS011;64673;52.276;10.560;2023-02-11T04:11:30;52.45;;;21.25;;
75990;SDS011;64673;52.276;10.560;2023-02-11T04:13:56;57.92;;;21.20;;
75990;SDS011;64673;52.276;10.560;2023-02-11T04:16:22;55.47;;;21.00;;
75990;SDS011;64673;52.276;10.560;2023-02-11T04:18:48;62.95;;;19.52;;
75990;SDS011;64673;52.276;10.560;2023-02-11T04:21:13;49.50;;;19.50;;
75990;SDS011;64673;52.276;10.560;2023-02-11T04:23:38;56.78;;;21.33;;
75990;SDS011;64673;52.276;10.560;2023-02-11T04:26:04;59.40;;;20.98;;
75990;SDS011;64673;52.276;10.560;2023-02-11T04:28:29;56.40;;;20.02;;
75990;SDS011;64673;52.276;10.560;2023-02-11T04:30:55;60.90;;;21.40;;
75990;SDS011;64673;52.276;10.560;2023-02-11T04:33:20;54.28;;;20.70;;
75990;SDS011;64673;52.276;10.560;2023-02-11T04:35:46;50.83;;;18.77;;
75990;SDS011;64673;52.276;10.560;2023-02-11T04:38:12;60.47;;;20.55;;
75990;SDS011;64673;52.276;10.560;2023-02-11T04:40:37;64.82;;;21.95;;
75990;SDS011;64673;52.276;10.560;2023-02-11T04:43:03;55.65;;;19.95;;
75990;SDS011;64673;52.276;10.560;2023-02-11T04:45:29;59.72;;;20.95;;
75990;SDS011;64673;52.276;10.560;2023-02-11T04:47:54;62.17;;;21.65;;
75990;SDS011;64673;52.276;10.560;2023-02-11T04:50:20;54.17;;;19.92;;
75990;SDS011;64673;52.276;10.560;2023-02-11T04:52:45;59.90;;;21.70;;
75990;SDS011;64673;52.276;10.560;2023-02-11T04:55:11;66.05;;;24.50;;
75990;SDS011;64673;52.276;10.560;2023-02-11T04:57:36;57.40;;;20.75;;
75990;SDS011;64673;52.276;10.560;2023-02-11T05:00:02;60.75;;;22.35;;
75990;SDS011;64673;52.276;10.560;2023-02-11T05:02:28;70.25;;;23.83;;
75990;SDS011;64673;52.276;10.560;2023-02-11T05:04:53;64.68;;;23.10;;
75990;SDS011;64673;52.276;10.560;2023-02-11T05:07:19;67.65;;;22.58;;
75990;SDS011;64673;52.276;10.560;2023-02-11T05:09:44;69.68;;;23.10;;
75990;SDS011;64673;52.276;10.560;2023-02-11T05:12:09;75.15;;;24.48;;
75990;SDS011;64673;52.276;10.560;2023-02-11T05:14:35;66.90;;;24.25;;
75990;SDS011;64673;52.276;10.560;2023-02-11T05:17:00;65.93;;;23.17;;
75990;SDS011;64673;52.276;10.560;2023-02-11T05:19:25;67.22;;;23.85;;
75990;SDS011;64673;52.276;10.560;2023-02-11T05:21:51;63.38;;;21.40;;
75990;SDS011;64673;52.276;10.560;2023-02-11T05:24:17;72.32;;;25.05;;
75990;SDS011;64673;52.276;10.560;2023-02-11T05:26:43;69.60;;;23.20;;
75990;SDS011;64673;52.276;10.560;2023-02-11T05:29:08;65.60;;;23.60;;
75990;SDS011;64673;52.276;10.560;2023-02-11T05:31:33;65.47;;;23.45;;
75990;SDS011;64673;52.276;10.560;2023-02-11T05:33:58;70.57;;;21.50;;
75990;SDS011;64673;52.276;10.560;2023-02-11T05:36:24;59.35;;;22.48;;
75990;SDS011;64673;52.276;10.560;2023-02-11T05:38:49;60.55;;;22.27;;
75990;SDS011;64673;52.276;10.560;2023-02-11T05:41:15;65.60;;;22.75;;
75990;SDS011;64673;52.276;10.560;2023-02-11T05:43:40;62.63;;;23.02;;
75990;SDS011;64673;52.276;10.560;2023-02-11T05:46:05;67.32;;;20.13;;
75990;SDS011;64673;52.276;10.560;2023-02-11T05:48:31;56.55;;;20.48;;
75990;SDS011;64673;52.276;10.560;2023-02-11T05:50:56;63.65;;;21.23;;
75990;SDS011;64673;52.276;10.560;2023-02-11T05:53:22;57.83;;;20.95;;
75990;SDS011;64673;52.276;10.560;2023-02-11T05:55:47;61.50;;;21.88;;
75990;SDS011;64673;52.276;10.560;2023-02-11T05:58:13;54.85;;;20.75;;
75990;SDS011;64673;52.276;10.560;2023-02-11T06:00:38;51.80;;;20.00;;
75990;SDS011;64673;52.276;10.560;2023-02-11T06:03:03;46.38;;;19.33;;
75990;SDS011;64673;52.276;10.560;2023-02-11T06:05:29;50.78;;;19.55;;
75990;SDS011;64673;52.276;10.560;2023-02-11T06:07:55;49.85;;;19.90;;
75990;SDS011;64673;52.276;10.560;2023-02-11T06:10:20;50.60;;;18.33;;
75990;SDS011;64673;52.276;10.560;2023-02-11T06:12:46;42.80;;;17.85;;
75990;SDS011;64673;52.276;10.560;2023-02-11T06:15:11;43.10;;;17.75;;
75990;SDS011;64673;52.276;10.560;2023-02-11T06:17:37;49.10;;;19.40;;
75990;SDS011;64673;52.276;10.560;2023-02-11T06:20:03;44.95;;;18.10;;
75990;SDS011;64673;52.276;10.560;2023-02-11T06:22:30;42.35;;;16.63;;
75990;SDS011;64673;52.276;10.560;2023-02-11T06:24:55;42.38;;;18.05;;
75990;SDS011;64673;52.276;10.560;2023-02-11T06:27:21;34.50;;;13.80;;
75990;SDS011;64673;52.276;10.560;2023-02-11T06:29:46;41.97;;;17.75;;
75990;SDS011;64673;52.276;10.560;2023-02-11T06:32:12;38.45;;;16.65;;
75990;SDS011;64673;52.276;10.560;2023-02-11T06:34:38;39.85;;;16.58;;
75990;SDS011;64673;52.276;10.560;2023-02-11T06:37:03;41.15;;;14.57;;
75990;SDS011;64673;52.276;10.560;2023-02-11T06:39:29;42.67;;;17.90;;
75990;SDS011;64673;52.276;10.560;2023-02-11T06:41:54;36.08;;;14.38;;
75990;SDS011;64673;52.276;10.560;2023-02-11T06:44:19;42.22;;;16.27;;
75990;SDS011;64673;52.276;10.560;2023-02-11T06:46:46;40.20;;;16.83;;
75990;SDS011;64673;52.276;10.560;2023-02-11T06:49:11;37.13;;;16.27;;
75990;SDS011;64673;52.276;10.560;2023-02-11T06:51:37;40.65;;;16.45;;
75990;SDS011;64673;52.276;10.560;2023-02-11T06:54:03;39.88;;;16.42;;
75990;SDS011;64673;52.276;10.560;2023-02-11T06:56:30;39.72;;;16.15;;
75990;SDS011;64673;52.276;10.560;2023-02-11T06:58:55;37.72;;;15.68;;
75990;SDS011;64673;52.276;10.560;2023-02-11T07:01:22;37.33;;;16.08;;
75990;SDS011;64673;52.276;10.560;2023-02-11T07:03:48;36.65;;;16.45;;
75990;SDS011;64673;52.276;10.560;2023-02-11T07:06:16;38.30;;;16.08;;
75990;SDS011;64673;52.276;10.560;2023-02-11T07:08:44;40.90;;;15.75;;
75990;SDS011;64673;52.276;10.560;2023-02-11T07:11:11;41.00;;;17.05;;
75990;SDS011;64673;52.276;10.560;2023-02-11T07:13:38;37.55;;;16.38;;
75990;SDS011;64673;52.276;10.560;2023-02-11T07:16:07;42.50;;;18.10;;
75990;SDS011;64673;52.276;10.560;2023-02-11T07:18:34;37.28;;;15.93;;
75990;SDS011;64673;52.276;10.560;2023-02-11T07:21:06;42.38;;;16.83;;
75990;SDS011;64673;52.276;10.560;2023-02-11T07:23:33;37.53;;;14.85;;
75990;SDS011;64673;52.276;10.560;2023-02-11T07:26:03;39.80;;;15.68;;
75990;SDS011;64673;52.276;10.560;2023-02-11T07:28:32;43.90;;;16.52;;
75990;SDS011;64673;52.276;10.560;2023-02-11T07:30:59;44.42;;;16.85;;
75990;SDS011;64673;52.276;10.560;2023-02-11T07:33:30;42.25;;;15.98;;
75990;SDS011;64673;52.276;10.560;2023-02-11T07:35:58;44.15;;;17.33;;
75990;SDS011;64673;52.276;10.560;2023-02-11T07:38:24;39.83;;;16.60;;
75990;SDS011;64673;52.276;10.560;2023-02-11T07:40:49;42.35;;;16.70;;
75990;SDS011;64673;52.276;10.560;2023-02-11T07:43:15;41.33;;;18.02;;
75990;SDS011;64673;52.276;10.560;2023-02-11T07:45:40;39.90;;;16.15;;
75990;SDS011;64673;52.276;10.560;2023-02-11T07:48:05;42.38;;;17.08;;
75990;SDS011;64673;52.276;10.560;2023-02-11T07:50:31;35.30;;;15.32;;
75990;SDS011;64673;52.276;10.560;2023-02-11T07:52:56;39.50;;;17.10;;
75990;SDS011;64673;52.276;10.560;2023-02-11T07:55:21;37.95;;;16.25;;
75990;SDS011;64673;52.276;10.560;2023-02-11T07:57:47;43.75;;;17.92;;
75990;SDS011;64673;52.276;10.560;2023-02-11T08:00:12;40.28;;;17.02;;
75990;SDS011;64673;52.276;10.560;2023-02-11T08:02:38;40.95;;;17.40;;
75990;SDS011;64673;52.276;10.560;2023-02-11T08:05:03;48.17;;;17.77;;
75990;SDS011;64673;52.276;10.560;2023-02-11T08:07:29;44.83;;;16.98;;
75990;SDS011;64673;52.276;10.560;2023-02-11T08:09:54;39.28;;;16.10;;
75990;SDS011;64673;52.276;10.560;2023-02-11T08:12:19;42.88;;;18.25;;
75990;SDS011;64673;52.276;10.560;2023-02-11T08:14:45;45.75;;;17.20;;
75990;SDS011;64673;52.276;10.560;2023-02-11T08:17:10;41.25;;;18.08;;
75990;SDS011;64673;52.276;10.560;2023-02-11T08:19:35;44.45;;;17.58;;
75990;SDS011;64673;52.276;10.560;2023-02-11T08:22:02;44.83;;;17.70;;
75990;SDS011;64673;52.276;10.560;2023-02-11T08:24:28;43.38;;;17.98;;
75990;SDS011;64673;52.276;10.560;2023-02-11T08:26:53;46.35;;;17.10;;
75990;SDS011;64673;52.276;10.560;2023-02-11T08:29:18;42.67;;;17.48;;
75990;SDS011;64673;52.276;10.560;2023-02-11T08:31:45;39.22;;;18.52;;
75990;SDS011;64673;52.276;10.560;2023-02-11T08:34:12;47.45;;;17.88;;
75990;SDS011;64673;52.276;10.560;2023-02-11T08:36:39;46.83;;;19.45;;
75990;SDS011;64673;52.276;10.560;2023-02-11T08:39:07;53.70;;;21.45;;
75990;SDS011;64673;52.276;10.560;2023-02-11T08:41:36;45.35;;;18.08;;
75990;SDS011;64673;52.276;10.560;2023-02-11T08:44:02;43.83;;;18.73;;
75990;SDS011;64673;52.276;10.560;2023-02-11T08:46:27;49.75;;;18.25;;
75990;SDS011;64673;52.276;10.560;2023-02-11T08:48:53;44.70;;;18.65;;
75990;SDS011;64673;52.276;10.560;2023-02-11T08:51:22;50.22;;;18.67;;
75990;SDS011;64673;52.276;10.560;2023-02-11T08:53:49;51.60;;;19.23;;
75990;SDS011;64673;52.276;10.560;2023-02-11T08:56:16;48.13;;;19.67;;
75990;SDS011;64673;52.276;10.560;2023-02-11T08:58:43;45.75;;;20.83;;
75990;SDS011;64673;52.276;10.560;2023-02-11T09:01:10;50.50;;;19.17;;
75990;SDS011;64673;52.276;10.560;2023-02-11T09:03:37;48.58;;;17.90;;
75990;SDS011;64673;52.276;10.560;2023-02-11T09:06:03;44.70;;;19.23;;
75990;SDS011;64673;52.276;10.560;2023-02-11T09:08:32;50.58;;;21.35;;
75990;SDS011;64673;52.276;10.560;2023-02-11T09:10:59;51.83;;;19.95;;
75990;SDS011;64673;52.276;10.560;2023-02-11T09:13:24;49.08;;;19.60;;
75990;SDS011;64673;52.276;10.560;2023-02-11T09:15:50;50.40;;;17.73;;
75990;SDS011;64673;52.276;10.560;2023-02-11T09:18:15;46.25;;;18.40;;
75990;SDS011;64673;52.276;10.560;2023-02-11T09:20:40;44.95;;;18.08;;
75990;SDS011;64673;52.276;10.560;2023-02-11T09:23:06;46.15;;;18.40;;
75990;SDS011;64673;52.276;10.560;2023-02-11T09:25:31;44.67;;;18.08;;
75990;SDS011;64673;52.276;10.560;2023-02-11T09:27:56;46.55;;;18.20;;
75990;SDS011;64673;52.276;10.560;2023-02-11T09:30:22;49.10;;;19.33;;
75990;SDS011;64673;52.276;10.560;2023-02-11T09:32:47;47.50;;;18.33;;
75990;SDS011;64673;52.276;10.560;2023-02-11T09:35:13;48.38;;;19.58;;
75990;SDS011;64673;52.276;10.560;2023-02-11T09:37:38;48.33;;;17.83;;
75990;SDS011;64673;52.276;10.560;2023-02-11T09:40:04;49.50;;;19.40;;
75990;SDS011;64673;52.276;10.560;2023-02-11T09:45:01;50.20;;;19.98;;
75990;SDS011;64673;52.276;10.560;2023-02-11T09:47:29;47.45;;;17.92;;
75990;SDS011;64673;52.276;10.560;2023-02-11T09:50:11;46.55;;;19.27;;
75990;SDS011;64673;52.276;10.560;2023-02-11T09:55:30;51.67;;;19.33;;
75990;SDS011;64673;52.276;10.560;2023-02-11T09:58:10;48.22;;;18.85;;
75990;SDS011;64673;52.276;10.560;2023-02-11T10:03:37;50.03;;;19.35;;
75990;SDS011;64673;52.276;10.560;2023-02-11T10:06:35;51.08;;;20.00;;
75990;SDS011;64673;52.276;10.560;2023-02-11T10:23:17;61.72;;;20.80;;
75990;SDS011;64673;52.276;10.560;2023-02-11T10:25:47;57.28;;;19.77;;
75990;SDS011;64673;52.276;10.560;2023-02-11T10:28:18;58.17;;;21.67;;
75990;SDS011;64673;52.276;10.560;2023-02-11T10:36:00;60.97;;;21.50;;
75990;SDS011;64673;52.276;10.560;2023-02-11T10:38:26;63.92;;;21.77;;
75990;SDS011;64673;52.276;10.560;2023-02-11T10:40:52;62.45;;;21.38;;
75990;SDS011;64673;52.276;10.560;2023-02-11T10:43:18;60.75;;;22.08;;
75990;SDS011;64673;52.276;10.560;2023-02-11T10:45:48;58.45;;;19.38;;
75990;SDS011;64673;52.276;10.560;2023-02-11T10:48:35;62.53;;;21.70;;
75990;SDS011;64673;52.276;10.560;2023-02-11T10:53:35;58.20;;;20.92;;
75990;SDS011;64673;52.276;10.560;2023-02-11T10:56:00;65.18;;;21.55;;
75990;SDS011;64673;52.276;10.560;2023-02-11T10:58:31;62.58;;;20.15;;
75990;SDS011;64673;52.276;10.560;2023-02-11T11:01:00;58.28;;;20.20;;
75990;SDS011;64673;52.276;10.560;2023-02-11T11:03:31;56.22;;;19.50;;
75990;SDS011;64673;52.276;10.560;2023-02-11T11:06:04;57.15;;;19.58;;
75990;SDS011;64673;52.276;10.560;2023-02-11T11:08:53;54.47;;;20.85;;
75990;SDS011;64673;52.276;10.560;2023-02-11T11:11:19;55.63;;;19.98;;
75990;SDS011;64673;52.276;10.560;2023-02-11T11:16:19;50.60;;;19.42;;
75990;SDS011;64673;52.276;10.560;2023-02-11T11:18:48;53.35;;;20.00;;
75990;SDS011;64673;52.276;10.560;2023-02-11T11:21:22;50.78;;;19.88;;
75990;SDS011;64673;52.276;10.560;2023-02-11T11:23:54;48.40;;;18.90;;
75990;SDS011;64673;52.276;10.560;2023-02-11T11:26:23;43.20;;;17.42;;
75990;SDS011;64673;52.276;10.560;2023-02-11T11:29:10;54.08;;;18.33;;
75990;SDS011;64673;52.276;10.560;2023-02-11T11:31:50;49.70;;;17.88;;
75990;SDS011;64673;52.276;10.560;2023-02-11T11:36:50;48.22;;;18.67;;
75990;SDS011;64673;52.276;10.560;2023-02-11T11:39:21;46.20;;;18.33;;
75990;SDS011;64673;52.276;10.560;2023-02-11T11:41:51;53.15;;;18.48;;
75990;SDS011;64673;52.276;10.560;2023-02-11T11:44:34;49.38;;;17.17;;
75990;SDS011;64673;52.276;10.560;2023-02-11T11:52:40;39.92;;;13.93;;
75990;SDS011;64673;52.276;10.560;2023-02-11T11:55:17;44.00;;;16.00;;
75990;SDS011;64673;52.276;10.560;2023-02-11T11:57:47;38.13;;;15.55;;
75990;SDS011;64673;52.276;10.560;2023-02-11T12:00:17;41.42;;;16.60;;
75990;SDS011;64673;52.276;10.560;2023-02-11T12:03:08;39.05;;;14.13;;
75990;SDS011;64673;52.276;10.560;2023-02-11T12:26:04;36.40;;;13.95;;
75990;SDS011;64673;52.276;10.560;2023-02-11T12:40:40;30.80;;;12.35;;
75990;SDS011;64673;52.276;10.560;2023-02-11T12:51:51;36.58;;;13.45;;
75990;SDS011;64673;52.276;10.560;2023-02-11T12:58:54;31.88;;;13.25;;
75990;SDS011;64673;52.276;10.560;2023-02-11T13:01:26;31.02;;;12.27;;
75990;SDS011;64673;52.276;10.560;2023-02-11T13:06:32;31.00;;;12.60;;
75990;SDS011;64673;52.276;10.560;2023-02-11T13:09:02;29.75;;;12.85;;
75990;SDS011;64673;52.276;10.560;2023-02-11T13:11:36;28.85;;;11.68;;
75990;SDS011;64673;52.276;10.560;2023-02-11T13:14:15;29.73;;;12.45;;
75990;SDS011;64673;52.276;10.560;2023-02-11T13:16:46;30.08;;;11.52;;
75990;SDS011;64673;52.276;10.560;2023-02-11T13:35:32;25.45;;;12.75;;
75990;SDS011;64673;52.276;10.560;2023-02-11T13:40:49;25.77;;;11.25;;
75990;SDS011;64673;52.276;10.560;2023-02-11T13:49:29;25.92;;;11.02;;
75990;SDS011;64673;52.276;10.560;2023-02-11T13:51:57;23.63;;;11.30;;
75990;SDS011;64673;52.276;10.560;2023-02-11T13:54:27;30.05;;;11.27;;
75990;SDS011;64673;52.276;10.560;2023-02-11T14:10:54;30.25;;;11.18;;
75990;SDS011;64673;52.276;10.560;2023-02-11T14:18:35;27.38;;;11.40;;
75990;SDS011;64673;52.276;10.560;2023-02-11T14:21:10;25.27;;;10.90;;
75990;SDS011;64673;52.276;10.560;2023-02-11T14:26:42;29.38;;;11.18;;
75990;SDS011;64673;52.276;10.560;2023-02-11T14:31:44;26.98;;;11.65;;
75990;SDS011;64673;52.276;10.560;2023-02-11T14:36:49;33.47;;;13.07;;
75990;SDS011;64673;52.276;10.560;2023-02-11T14:42:14;27.77;;;11.15;;
75990;SDS011;64673;52.276;10.560;2023-02-11T14:47:16;28.38;;;11.93;;
75990;SDS011;64673;52.276;10.560;2023-02-11T14:54:47;30.60;;;11.20;;
75990;SDS011;64673;52.276;10.560;2023-02-11T14:57:18;25.98;;;10.75;;
75990;SDS011;64673;52.276;10.560;2023-02-11T14:59:57;24.80;;;11.00;;
75990;SDS011;64673;52.276;10.560;2023-02-11T15:02:32;26.70;;;12.07;;
75990;SDS011;64673;52.276;10.560;2023-02-11T15:05:15;28.77;;;11.93;;
75990;SDS011;64673;52.276;10.560;2023-02-11T15:07:53;29.30;;;11.57;;
75990;SDS011;64673;52.276;10.560;2023-02-11T15:10:32;34.88;;;12.43;;
75990;SDS011;64673;52.276;10.560;2023-02-11T15:13:00;28.33;;;11.93;;
75990;SDS011;64673;52.276;10.560;2023-02-11T15:15:27;28.50;;;12.30;;
75990;SDS011;64673;52.276;10.560;2023-02-11T15:17:54;26.33;;;11.93;;
75990;SDS011;64673;52.276;10.560;2023-02-11T15:20:26;30.52;;;12.38;;
75990;SDS011;64673;52.276;10.560;2023-02-11T15:22:55;31.65;;;11.88;;
75990;SDS011;64673;52.276;10.560;2023-02-11T15:25:23;33.80;;;13.18;;
75990;SDS011;64673;52.276;10.560;2023-02-11T15:27:50;36.58;;;13.60;;
75990;SDS011;64673;52.276;10.560;2023-02-11T15:32:48;34.92;;;12.85;;
75990;SDS011;64673;52.276;10.560;2023-02-11T15:35:25;33.30;;;12.15;;
75990;SDS011;64673;52.276;10.560;2023-02-11T15:37:52;30.02;;;12.25;;
75990;SDS011;64673;52.276;10.560;2023-02-11T15:40:19;32.30;;;11.27;;
75990;SDS011;64673;52.276;10.560;2023-02-11T15:45:22;29.60;;;12.23;;
75990;SDS011;64673;52.276;10.560;2023-02-11T15:51:06;32.22;;;13.27;;
75990;SDS011;64673;52.276;10.560;2023-02-11T15:53:38;30.60;;;12.55;;
75990;SDS011;64673;52.276;10.560;2023-02-11T15:56:14;33.97;;;12.90;;
75990;SDS011;64673;52.276;10.560;2023-02-11T15:58:48;34.47;;;12.88;;
75990;SDS011;64673;52.276;10.560;2023-02-11T16:01:16;36.72;;;13.40;;
75990;SDS011;64673;52.276;10.560;2023-02-11T16:03:42;28.33;;;12.32;;
75990;SDS011;64673;52.276;10.560;2023-02-11T16:08:56;32.25;;;13.55;;
75990;SDS011;64673;52.276;10.560;2023-02-11T16:11:23;36.35;;;13.85;;
75990;SDS011;64673;52.276;10.560;2023-02-11T16:13:54;33.35;;;12.95;;
75990;SDS011;64673;52.276;10.560;2023-02-11T16:16:21;35.85;;;13.77;;
75990;SDS011;64673;52.276;10.560;2023-02-11T16:18:50;34.10;;;13.27;;
75990;SDS011;64673;52.276;10.560;2023-02-11T16:21:17;38.72;;;14.40;;
75990;SDS011;64673;52.276;10.560;2023-02-11T16:23:49;35.95;;;13.85;;
75990;SDS011;64673;52.276;10.560;2023-02-11T16:26:21;34.00;;;13.65;;
75990;SDS011;64673;52.276;10.560;2023-02-11T16:28:51;38.25;;;13.60;;
75990;SDS011;64673;52.276;10.560;2023-02-11T16:31:17;42.25;;;14.80;;
75990;SDS011;64673;52.276;10.560;2023-02-11T16:33:43;42.47;;;14.63;;
75990;SDS011;64673;52.276;10.560;2023-02-11T16:36:12;41.85;;;15.27;;
75990;SDS011;64673;52.276;10.560;2023-02-11T16:38:41;38.85;;;15.65;;
75990;SDS011;64673;52.276;10.560;2023-02-11T16:41:06;39.97;;;14.25;;
75990;SDS011;64673;52.276;10.560;2023-02-11T16:43:35;43.72;;;15.75;;
75990;SDS011;64673;52.276;10.560;2023-02-11T16:46:01;39.00;;;13.93;;
75990;SDS011;64673;52.276;10.560;2023-02-11T16:48:27;41.95;;;14.63;;
75990;SDS011;64673;52.276;10.560;2023-02-11T16:50:53;40.83;;;14.57;;
75990;SDS011;64673;52.276;10.560;2023-02-11T16:53:20;39.63;;;14.38;;
75990;SDS011;64673;52.276;10.560;2023-02-11T16:55:47;40.53;;;14.73;;
75990;SDS011;64673;52.276;10.560;2023-02-11T16:58:13;41.55;;;15.00;;
75990;SDS011;64673;52.276;10.560;2023-02-11T17:00:38;40.30;;;15.65;;
75990;SDS011;64673;52.276;10.560;2023-02-11T17:03:05;38.92;;;14.88;;
75990;SDS011;64673;52.276;10.560;2023-02-11T17:05:32;41.42;;;14.90;;
75990;SDS011;64673;52.276;10.560;2023-02-11T17:07:57;45.35;;;16.00;;
75990;SDS011;64673;52.276;10.560;2023-02-11T17:10:24;48.30;;;16.40;;
75990;SDS011;64673;52.276;10.560;2023-02-11T17:12:50;45.97;;;15.98;;
75990;SDS011;64673;52.276;10.560;2023-02-11T17:15:16;39.03;;;16.00;;
75990;SDS011;64673;52.276;10.560;2023-02-11T17:17:42;44.70;;;16.30;;
75990;SDS011;64673;52.276;10.560;2023-02-11T17:20:09;43.95;;;17.15;;
75990;SDS011;64673;52.276;10.560;2023-02-11T17:22:36;45.05;;;16.38;;
75990;SDS011;64673;52.276;10.560;2023-02-11T17:25:02;48.92;;;16.02;;
75990;SDS011;64673;52.276;10.560;2023-02-11T17:27:27;47.50;;;16.33;;
75990;SDS011;64673;52.276;10.560;2023-02-11T17:29:52;37.72;;;13.27;;
75990;SDS011;64673;52.276;10.560;2023-02-11T17:32:18;50.80;;;16.73;;
75990;SDS011;64673;52.276;10.560;2023-02-11T17:34:43;59.15;;;17.27;;
75990;SDS011;64673;52.276;10.560;2023-02-11T17:37:09;49.67;;;17.27;;
75990;SDS011;64673;52.276;10.560;2023-02-11T17:39:37;54.92;;;18.20;;